KISQ/ISQ METAR and TAF weather

Enter ICAO airport designator
Station Type Date Time Source
KISQ METAR 2019/02/16 02:55 UTC NOAA

KISQ 160255Z AUTO 32016G23KT 10SM OVC019 M06/M11 A2996 RMK AO2 T10611108


Station Type Date Time Source
KISQ Decoded METAR 2019/02/16 02:55 UTC NOAA

Manistique, Schoolcraft County Airport, MI, United States (KISQ) 45-58-29N 086-10-19W
Feb 15, 2019 - 09:55 PM EST / 2019.02.16 0255 UTC
Wind: from the NW (320 degrees) at 18 MPH (16 KT) gusting to 26 MPH (23 KT):0
Visibility: 10 mile(s):0
Sky conditions: overcast
Temperature: 21.0 F (-6.1 C)
Windchill: 6 F (-14 C):1
Dew Point: 12.6 F (-10.8 C)
Relative Humidity: 69%
Pressure (altimeter): 29.96 in. Hg (1014 hPa)
ob: KISQ 160255Z AUTO 32016G23KT 10SM OVC019 M06/M11 A2996 RMK AO2 T10611108
cycle: 3

Station Type Date Time Source
KISQ TAF UTC NOAA

Error!


Example: see airport list